createdAt,value
2018-09-12T00:00:16.000Z,31
2018-09-12T00:02:16.000Z,30.9
2018-09-12T00:03:16.000Z,30.9
2018-09-12T00:05:01.000Z,30.9
2018-09-12T00:06:16.000Z,30.8
2018-09-12T00:08:16.000Z,30.8
2018-09-12T00:10:16.000Z,30.8
2018-09-12T00:11:16.000Z,30.8
2018-09-12T00:12:16.000Z,30.8
2018-09-12T00:14:16.000Z,30.8
2018-09-12T00:15:16.000Z,30.9
2018-09-12T00:17:16.000Z,30.9
2018-09-12T00:19:16.000Z,30.9
2018-09-12T00:20:16.000Z,30.8
2018-09-12T00:21:16.000Z,30.8
2018-09-12T00:23:16.000Z,30.9
2018-09-12T00:24:16.000Z,30.9
2018-09-12T00:26:16.000Z,30.9
2018-09-12T00:28:16.000Z,30.9
2018-09-12T00:30:16.000Z,30.9
2018-09-12T00:31:16.000Z,30.9
2018-09-12T00:33:16.000Z,30.9
2018-09-12T00:35:16.000Z,30.8
2018-09-12T00:36:16.000Z,30.8
2018-09-12T00:38:16.000Z,30.8
2018-09-12T00:39:16.000Z,30.9
2018-09-12T00:41:16.000Z,30.9
2018-09-12T00:42:16.000Z,30.9
2018-09-12T00:44:16.000Z,30.9
2018-09-12T00:46:16.000Z,30.8
2018-09-12T00:47:16.000Z,30.8
2018-09-12T00:49:16.000Z,30.9
2018-09-12T00:50:16.000Z,30.9
2018-09-12T00:52:16.000Z,30.9
2018-09-12T00:54:16.000Z,30.9
2018-09-12T00:55:16.000Z,30.9
2018-09-12T00:56:16.000Z,30.9
2018-09-12T00:58:16.000Z,31
2018-09-12T00:59:16.000Z,31
2018-09-12T01:01:16.000Z,31
2018-09-12T01:02:16.000Z,31
2018-09-12T01:04:16.000Z,31
2018-09-12T01:06:16.000Z,31
2018-09-12T01:08:16.000Z,30.9
2018-09-12T01:09:16.000Z,30.9
2018-09-12T01:11:16.000Z,30.9
2018-09-12T01:13:16.000Z,30.8
2018-09-12T01:14:16.000Z,30.8
2018-09-12T01:16:16.000Z,30.8
2018-09-12T01:17:16.000Z,30.8
2018-09-12T01:18:16.000Z,30.8
2018-09-12T01:19:16.000Z,30.8
2018-09-12T01:20:16.000Z,30.9
2018-09-12T01:22:16.000Z,30.9
2018-09-12T01:24:16.000Z,30.9
2018-09-12T01:26:16.000Z,30.9
2018-09-12T01:27:16.000Z,30.9
2018-09-12T01:31:17.000Z,30.4
2018-09-12T01:33:02.000Z,30.4
2018-09-12T01:35:02.000Z,30.4
2018-09-12T01:37:02.000Z,30.5
2018-09-12T01:38:02.000Z,30.5
2018-09-12T01:39:02.000Z,30.6
2018-09-12T01:41:02.000Z,30.7
2018-09-12T01:42:02.000Z,30.8
2018-09-12T01:44:02.000Z,30.8
2018-09-12T01:45:02.000Z,30.8
2018-09-12T01:47:02.000Z,30.9
2018-09-12T01:49:02.000Z,30.8
2018-09-12T01:51:02.000Z,30.7
2018-09-12T01:52:02.000Z,30.7
2018-09-12T01:53:47.000Z,30.8
2018-09-12T01:55:02.000Z,30.8
2018-09-12T01:56:02.000Z,30.8
2018-09-12T01:58:02.000Z,30.8
2018-09-12T02:00:02.000Z,30.8
2018-09-12T02:02:02.000Z,30.7
2018-09-12T02:03:02.000Z,30.7
2018-09-12T02:05:02.000Z,30.7
2018-09-12T02:07:02.000Z,30.7
2018-09-12T02:08:02.000Z,30.7
2018-09-12T02:09:02.000Z,30.7
2018-09-12T02:11:02.000Z,30.8
2018-09-12T02:12:02.000Z,30.8
2018-09-12T02:14:02.000Z,30.9
2018-09-12T02:16:02.000Z,30.8
2018-09-12T02:17:02.000Z,30.8
2018-09-12T02:18:02.000Z,30.9
2018-09-12T02:20:02.000Z,30.8
2018-09-12T02:21:02.000Z,30.9
2018-09-12T02:22:02.000Z,30.9
2018-09-12T02:23:47.000Z,30.9
2018-09-12T02:25:02.000Z,30.9
2018-09-12T02:26:02.000Z,30.9
2018-09-12T02:28:02.000Z,30.9
2018-09-12T02:30:02.000Z,30.9
2018-09-12T02:31:02.000Z,30.9
2018-09-12T02:33:02.000Z,30.8
2018-09-12T02:34:02.000Z,30.8
2018-09-12T02:35:02.000Z,30.9
2018-09-12T02:37:02.000Z,30.9
2018-09-12T02:39:02.000Z,30.9
2018-09-12T02:40:02.000Z,30.9
2018-09-12T02:41:02.000Z,30.9
2018-09-12T02:43:02.000Z,30.9
2018-09-12T02:45:02.000Z,30.9
2018-09-12T02:47:02.000Z,30.8
2018-09-12T02:49:02.000Z,30.7
2018-09-12T02:50:02.000Z,30.7
2018-09-12T02:51:02.000Z,30.8
2018-09-12T02:53:02.000Z,30.8
2018-09-12T02:55:02.000Z,30.8
2018-09-12T02:56:02.000Z,30.8
2018-09-12T02:57:47.000Z,30.9
2018-09-12T02:59:02.000Z,30.8
2018-09-12T03:01:02.000Z,30.8
2018-09-12T03:03:02.000Z,30.7
2018-09-12T03:04:02.000Z,30.7
2018-09-12T03:06:02.000Z,30.7
2018-09-12T03:08:02.000Z,30.6
2018-09-12T03:10:02.000Z,30.6
2018-09-12T03:11:02.000Z,30.6
2018-09-12T03:13:02.000Z,30.6
2018-09-12T03:15:02.000Z,30.5
2018-09-12T03:16:02.000Z,30.5
2018-09-12T03:18:02.000Z,30.5
2018-09-12T03:19:02.000Z,30.5
2018-09-12T03:21:02.000Z,30.6
2018-09-12T03:23:02.000Z,30.6
2018-09-12T03:25:02.000Z,30.6
2018-09-12T03:26:02.000Z,30.6
2018-09-12T03:28:02.000Z,30.7
2018-09-12T03:30:02.000Z,30.6
2018-09-12T03:32:02.000Z,30.6
2018-09-12T03:33:02.000Z,30.6
2018-09-12T03:35:02.000Z,30.6
2018-09-12T03:37:03.000Z,30.6
2018-09-12T03:39:03.000Z,30.6
2018-09-12T03:41:03.000Z,30.6
2018-09-12T03:43:03.000Z,30.5
2018-09-12T03:44:03.000Z,30.5
2018-09-12T03:46:03.000Z,30.6
2018-09-12T03:48:03.000Z,30.5
2018-09-12T03:50:03.000Z,30.5
2018-09-12T03:52:03.000Z,30.5
2018-09-12T03:54:03.000Z,30.5
2018-09-12T03:55:03.000Z,30.5
2018-09-12T03:57:03.000Z,30.5
2018-09-12T03:58:03.000Z,30.6
2018-09-12T03:59:03.000Z,30.6
2018-09-12T04:01:03.000Z,30.7
2018-09-12T04:03:03.000Z,30.7
2018-09-12T04:04:03.000Z,30.7
2018-09-12T04:06:03.000Z,30.7
2018-09-12T04:07:03.000Z,30.7
2018-09-12T04:09:03.000Z,30.7
2018-09-12T04:10:03.000Z,30.7
2018-09-12T04:11:03.000Z,30.7
2018-09-12T04:13:03.000Z,30.7
2018-09-12T04:15:03.000Z,30.7
2018-09-12T04:16:03.000Z,30.7
2018-09-12T04:18:03.000Z,30.8
2018-09-12T04:20:03.000Z,30.7
2018-09-12T04:22:03.000Z,30.7
2018-09-12T04:23:03.000Z,30.7
2018-09-12T04:25:03.000Z,30.7
2018-09-12T04:27:03.000Z,30.7
2018-09-12T04:29:03.000Z,30.4
2018-09-12T04:30:03.000Z,30.3
2018-09-12T04:32:03.000Z,30.1
2018-09-12T04:33:03.000Z,30
2018-09-12T04:35:03.000Z,29.7
2018-09-12T04:37:03.000Z,29.5
2018-09-12T04:38:47.000Z,29.3
2018-09-12T04:40:02.000Z,29.1
2018-09-12T04:41:02.000Z,29.1
2018-09-12T04:43:02.000Z,29
2018-09-12T04:45:02.000Z,28.8
2018-09-12T04:46:02.000Z,28.7
2018-09-12T04:47:02.000Z,28.6
2018-09-12T04:49:02.000Z,28.5
2018-09-12T04:50:02.000Z,28.5
2018-09-12T04:52:02.000Z,28.4
2018-09-12T04:53:02.000Z,28.4
2018-09-12T04:54:03.000Z,28.4
2018-09-12T04:56:02.000Z,28.4
2018-09-12T04:58:02.000Z,28.2
2018-09-12T05:00:02.000Z,28
2018-09-12T05:02:02.000Z,27.8
2018-09-12T05:03:02.000Z,27.8
2018-09-12T05:05:02.000Z,27.8
2018-09-12T05:06:02.000Z,27.9
2018-09-12T05:07:02.000Z,27.9
2018-09-12T05:08:02.000Z,28
2018-09-12T05:09:02.000Z,28.1
2018-09-12T05:10:02.000Z,28.1
2018-09-12T05:11:02.000Z,28.2
2018-09-12T05:13:02.000Z,28.2
2018-09-12T05:14:02.000Z,28.1
2018-09-12T05:16:02.000Z,28.2
2018-09-12T05:17:02.000Z,28.2
2018-09-12T05:19:02.000Z,28.2
2018-09-12T05:21:02.000Z,28.2
2018-09-12T05:23:02.000Z,28.1
2018-09-12T05:24:02.000Z,28.1
2018-09-12T05:25:03.000Z,28.2
2018-09-12T05:27:02.000Z,28.2
2018-09-12T05:28:02.000Z,28.2
2018-09-12T05:30:03.000Z,28.3
2018-09-12T05:32:02.000Z,28.3
2018-09-12T05:33:02.000Z,28.3
2018-09-12T05:35:02.000Z,28.4
2018-09-12T05:36:02.000Z,28.4
2018-09-12T05:38:02.000Z,28.4
2018-09-12T05:39:02.000Z,28.4
2018-09-12T05:41:02.000Z,28.5
2018-09-12T05:43:02.000Z,28.4
2018-09-12T05:44:02.000Z,28.4
2018-09-12T05:46:02.000Z,28.4
2018-09-12T05:47:02.000Z,28.4
2018-09-12T05:49:02.000Z,28.4
2018-09-12T05:50:02.000Z,28.5
2018-09-12T05:52:02.000Z,28.5
2018-09-12T05:53:02.000Z,28.6
2018-09-12T05:54:03.000Z,28.6
2018-09-12T05:56:02.000Z,28.6
2018-09-12T05:57:02.000Z,28.6
2018-09-12T05:59:02.000Z,28.6
2018-09-12T06:01:02.000Z,28.5
2018-09-12T06:02:02.000Z,28.5
2018-09-12T06:03:02.000Z,28.5
2018-09-12T06:05:02.000Z,28.5
2018-09-12T06:06:02.000Z,28.5
2018-09-12T06:08:02.000Z,28.6
2018-09-12T06:10:03.000Z,28.5
2018-09-12T06:12:02.000Z,28.5
2018-09-12T06:13:03.000Z,28.6
2018-09-12T06:15:03.000Z,28.7
2018-09-12T06:16:03.000Z,28.8
2018-09-12T06:17:03.000Z,28.9
2018-09-12T06:19:02.000Z,28.9
2018-09-12T06:20:02.000Z,28.9
2018-09-12T06:22:02.000Z,29
2018-09-12T06:24:02.000Z,29
2018-09-12T06:25:02.000Z,29
2018-09-12T06:26:03.000Z,29.1
2018-09-12T06:28:02.000Z,29.3
2018-09-12T06:30:02.000Z,29.2
2018-09-12T06:31:02.000Z,29.2
2018-09-12T06:32:03.000Z,29.3
2018-09-12T06:33:47.000Z,29.4
2018-09-12T06:35:02.000Z,29.4
2018-09-12T06:36:02.000Z,29.5
2018-09-12T06:37:02.000Z,29.6
2018-09-12T06:39:02.000Z,29.6
2018-09-12T06:40:02.000Z,29.7
2018-09-12T06:42:02.000Z,29.8
2018-09-12T06:43:03.000Z,29.9
2018-09-12T06:45:02.000Z,30
2018-09-12T06:46:02.000Z,30
2018-09-12T06:48:02.000Z,30
2018-09-12T06:50:02.000Z,30
2018-09-12T06:52:02.000Z,30
2018-09-12T06:54:02.000Z,30
2018-09-12T06:56:02.000Z,30.1
2018-09-12T06:57:47.000Z,30.2
2018-09-12T06:58:47.000Z,30.3
2018-09-12T07:00:02.000Z,30.3
2018-09-12T07:02:02.000Z,30.1
2018-09-12T07:03:02.000Z,30.1
2018-09-12T07:04:02.000Z,30.1
2018-09-12T07:06:02.000Z,30.2
2018-09-12T07:08:02.000Z,30
2018-09-12T07:09:02.000Z,30
2018-09-12T07:11:02.000Z,30
2018-09-12T07:12:02.000Z,30
2018-09-12T07:14:02.000Z,30.1
2018-09-12T07:16:02.000Z,30.1
2018-09-12T07:17:02.000Z,30
2018-09-12T07:18:02.000Z,29.8
2018-09-12T07:19:02.000Z,29.5
2018-09-12T07:21:02.000Z,29
2018-09-12T07:22:02.000Z,28.8
2018-09-12T07:24:02.000Z,28.5
2018-09-12T07:25:02.000Z,28.3
2018-09-12T07:26:47.000Z,28.3
2018-09-12T07:28:02.000Z,28
2018-09-12T07:30:02.000Z,27.9
2018-09-12T07:32:02.000Z,27.9
2018-09-12T07:33:02.000Z,27.8
2018-09-12T07:34:02.000Z,27.8
2018-09-12T07:36:02.000Z,27.4
2018-09-12T07:37:02.000Z,27.1
2018-09-12T07:39:02.000Z,26.7
2018-09-12T07:41:02.000Z,26.7
2018-09-12T07:42:02.000Z,26.9
2018-09-12T07:44:02.000Z,27.2
2018-09-12T07:46:02.000Z,27.4
2018-09-12T07:48:02.000Z,27.6
2018-09-12T07:49:02.000Z,27.6
2018-09-12T07:51:02.000Z,27.5
2018-09-12T07:53:02.000Z,27
2018-09-12T07:55:02.000Z,26.8
2018-09-12T07:57:02.000Z,26.6
2018-09-12T07:59:02.000Z,26.6
2018-09-12T08:00:02.000Z,26.7
2018-09-12T08:02:02.000Z,26.8
2018-09-12T08:04:02.000Z,26.7
2018-09-12T08:05:02.000Z,26.7
2018-09-12T08:06:02.000Z,26.7
2018-09-12T08:07:02.000Z,26.6
2018-09-12T08:09:02.000Z,26.5
2018-09-12T08:10:02.000Z,26.4
2018-09-12T08:12:02.000Z,26.4
2018-09-12T08:14:02.000Z,26.3
2018-09-12T08:15:02.000Z,26.2
2018-09-12T08:16:02.000Z,26.2
2018-09-12T08:17:02.000Z,26.3
2018-09-12T08:19:02.000Z,26.1
2018-09-12T08:20:02.000Z,26.1
2018-09-12T08:21:02.000Z,26.1
2018-09-12T08:23:02.000Z,26
2018-09-12T08:24:02.000Z,26
2018-09-12T08:26:02.000Z,26.1
2018-09-12T08:28:02.000Z,26.2
2018-09-12T08:29:02.000Z,26.2
2018-09-12T08:31:02.000Z,26.4
2018-09-12T08:33:02.000Z,26.4
2018-09-12T08:35:02.000Z,26.5
2018-09-12T08:37:02.000Z,26.6
2018-09-12T08:38:02.000Z,26.7
2018-09-12T08:39:02.000Z,26.9
2018-09-12T08:40:47.000Z,27.1
2018-09-12T08:42:02.000Z,27.1
2018-09-12T08:43:02.000Z,27.2
2018-09-12T08:45:02.000Z,27.1
2018-09-12T08:46:47.000Z,27
2018-09-12T08:48:02.000Z,26.9
2018-09-12T08:49:02.000Z,27
2018-09-12T08:50:02.000Z,27.1
2018-09-12T08:52:02.000Z,27.1
2018-09-12T08:53:02.000Z,27.1
2018-09-12T08:54:02.000Z,27
2018-09-12T08:55:02.000Z,27.1
2018-09-12T08:56:02.000Z,27.1
2018-09-12T08:58:02.000Z,27.1
2018-09-12T08:59:47.000Z,27.1
2018-09-12T09:01:02.000Z,27
2018-09-12T09:03:02.000Z,27.2
2018-09-12T09:05:02.000Z,27.3
2018-09-12T09:07:02.000Z,27.3
2018-09-12T09:08:02.000Z,27.4
2018-09-12T09:10:02.000Z,27.5
2018-09-12T09:12:02.000Z,27.6
2018-09-12T09:14:02.000Z,27.7
2018-09-12T09:16:02.000Z,28
2018-09-12T09:17:02.000Z,28.2
2018-09-12T09:19:02.000Z,28.5
2018-09-12T09:21:02.000Z,28.6
2018-09-12T09:22:02.000Z,28.6
2018-09-12T09:24:02.000Z,28.4
2018-09-12T09:26:02.000Z,28.5
2018-09-12T09:28:02.000Z,28.7
2018-09-12T09:29:02.000Z,28.8
2018-09-12T09:31:02.000Z,29.1
2018-09-12T09:32:02.000Z,29.2
2018-09-12T09:34:02.000Z,29.4
2018-09-12T09:35:02.000Z,29.5
2018-09-12T09:37:02.000Z,29.8
2018-09-12T09:38:02.000Z,29.9
2018-09-12T09:40:02.000Z,30
2018-09-12T09:42:02.000Z,30
2018-09-12T09:44:02.000Z,30
2018-09-12T09:46:02.000Z,30
2018-09-12T09:47:02.000Z,30
2018-09-12T09:49:02.000Z,30
2018-09-12T09:51:02.000Z,30.1
2018-09-12T09:52:02.000Z,30.1
2018-09-12T09:54:02.000Z,30.1
2018-09-12T09:56:02.000Z,30.2
2018-09-12T09:58:02.000Z,30.3
2018-09-12T09:59:02.000Z,30.4
2018-09-12T10:01:02.000Z,30.1
2018-09-12T10:03:02.000Z,29.6
2018-09-12T10:04:02.000Z,29.6
2018-09-12T10:06:02.000Z,29.8
2018-09-12T10:08:02.000Z,29.6
2018-09-12T10:09:47.000Z,29.6
2018-09-12T10:11:02.000Z,29.6
2018-09-12T10:13:02.000Z,29.5
2018-09-12T10:15:02.000Z,29.4
2018-09-12T10:17:02.000Z,29.5
2018-09-12T10:18:02.000Z,29.6
2018-09-12T10:19:02.000Z,29.9
2018-09-12T10:21:02.000Z,30.1
2018-09-12T10:22:02.000Z,30.2
2018-09-12T10:24:02.000Z,30.2
2018-09-12T10:26:02.000Z,30
2018-09-12T10:28:02.000Z,30
2018-09-12T10:29:02.000Z,30
2018-09-12T10:30:02.000Z,29.9
2018-09-12T10:32:02.000Z,30
2018-09-12T10:33:02.000Z,30
2018-09-12T10:34:02.000Z,29.9
2018-09-12T10:36:02.000Z,29.7
2018-09-12T10:38:02.000Z,29.7
2018-09-12T10:40:02.000Z,29.5
2018-09-12T10:41:02.000Z,29.4
2018-09-12T10:42:02.000Z,29.4
2018-09-12T10:43:02.000Z,29.6
2018-09-12T10:44:47.000Z,29.9
2018-09-12T10:46:02.000Z,30
2018-09-12T10:48:02.000Z,29.9
2018-09-12T10:49:02.000Z,29.9
2018-09-12T10:51:02.000Z,30
2018-09-12T10:52:02.000Z,30
2018-09-12T10:53:02.000Z,30
2018-09-12T10:55:02.000Z,29.8
2018-09-12T10:56:47.000Z,29.6
2018-09-12T10:58:02.000Z,29.5
2018-09-12T11:00:02.000Z,29.7
2018-09-12T11:02:03.000Z,29.8
2018-09-12T11:03:03.000Z,29.8
2018-09-12T11:04:03.000Z,29.9
2018-09-12T11:05:03.000Z,30.1
2018-09-12T11:07:03.000Z,30.3
2018-09-12T11:09:03.000Z,30.4
2018-09-12T11:11:03.000Z,30.5
2018-09-12T11:12:03.000Z,30.5
2018-09-12T11:50:22.000Z,29.4
2018-09-12T11:52:22.000Z,29.6
2018-09-12T11:54:22.000Z,30
2018-09-12T11:56:22.000Z,30.1
2018-09-12T11:57:22.000Z,30.2
2018-09-12T11:58:22.000Z,30.3
2018-09-12T12:00:22.000Z,30.1
2018-09-12T12:02:22.000Z,29.9
2018-09-12T12:04:22.000Z,29.6
2018-09-12T12:05:22.000Z,29.6
2018-09-12T12:07:22.000Z,29.4
2018-09-12T12:09:22.000Z,29.4
2018-09-12T12:10:22.000Z,29.3
2018-09-12T12:12:22.000Z,29.2
2018-09-12T12:13:22.000Z,29.2
2018-09-12T12:15:22.000Z,29.3
2018-09-12T12:17:22.000Z,29.4
2018-09-12T12:18:22.000Z,29.5
2018-09-12T12:20:22.000Z,29.5
2018-09-12T12:22:22.000Z,29.5
2018-09-12T12:23:22.000Z,29.5
2018-09-12T12:25:22.000Z,29.7
2018-09-12T12:26:22.000Z,29.8
2018-09-12T12:28:22.000Z,29.8
2018-09-12T12:29:22.000Z,29.8
2018-09-12T12:30:22.000Z,29.9
2018-09-12T12:31:22.000Z,29.9
2018-09-12T12:33:22.000Z,29.9
2018-09-12T12:35:22.000Z,29.9
2018-09-12T12:36:22.000Z,29.9
2018-09-12T12:37:22.000Z,30
2018-09-12T12:39:22.000Z,30
2018-09-12T12:41:22.000Z,30
2018-09-12T12:42:22.000Z,30
2018-09-12T12:43:22.000Z,30
2018-09-12T12:45:22.000Z,30
2018-09-12T12:46:22.000Z,30
2018-09-12T12:48:22.000Z,30
2018-09-12T12:50:22.000Z,29.9
2018-09-12T12:51:22.000Z,29.9
2018-09-12T12:53:22.000Z,29.8
2018-09-12T12:55:07.000Z,29.5
2018-09-12T12:56:22.000Z,29.3
2018-09-12T12:57:22.000Z,29.1
2018-09-12T12:59:22.000Z,28.8
2018-09-12T13:00:22.000Z,28.8
2018-09-12T13:02:22.000Z,28.8
2018-09-12T13:03:22.000Z,28.8
2018-09-12T13:05:22.000Z,28.6
2018-09-12T13:06:22.000Z,28.5
2018-09-12T13:08:21.000Z,28.6
2018-09-12T13:09:21.000Z,28.6
2018-09-12T13:11:21.000Z,28.7
2018-09-12T13:13:06.000Z,28.7
2018-09-12T13:14:21.000Z,28.8
2018-09-12T13:15:21.000Z,28.9
2018-09-12T13:16:21.000Z,29
2018-09-12T13:18:21.000Z,29
2018-09-12T13:19:21.000Z,28.9
2018-09-12T13:20:21.000Z,28.9
2018-09-12T13:21:21.000Z,28.9
2018-09-12T13:22:21.000Z,28.9
2018-09-12T13:24:21.000Z,28.7
2018-09-12T13:26:21.000Z,28.6
2018-09-12T13:27:21.000Z,28.6
2018-09-12T13:28:21.000Z,28.6
2018-09-12T13:30:21.000Z,28.7
2018-09-12T13:31:21.000Z,28.7
2018-09-12T13:33:21.000Z,28.9
2018-09-12T13:34:21.000Z,29
2018-09-12T13:35:21.000Z,29.1
2018-09-12T13:37:21.000Z,29
2018-09-12T13:38:21.000Z,28.9
2018-09-12T13:40:21.000Z,28.7
2018-09-12T13:41:21.000Z,28.6
2018-09-12T13:43:21.000Z,28.7
2018-09-12T13:45:21.000Z,28.7
2018-09-12T13:47:21.000Z,28.5
2018-09-12T13:48:21.000Z,28.4
2018-09-12T13:50:21.000Z,28.1
2018-09-12T13:52:06.000Z,28.1
2018-09-12T13:53:21.000Z,27.9
2018-09-12T13:54:21.000Z,27.9
2018-09-12T13:56:21.000Z,27.9
2018-09-12T13:58:21.000Z,28
2018-09-12T14:00:21.000Z,27.9
2018-09-12T14:02:21.000Z,27.7
2018-09-12T14:04:21.000Z,27.5
2018-09-12T14:06:21.000Z,27.4
2018-09-12T14:08:21.000Z,27.4
2018-09-12T14:09:21.000Z,27.4
2018-09-12T14:11:22.000Z,27.5
2018-09-12T14:12:22.000Z,27.5
2018-09-12T14:14:22.000Z,27.5
2018-09-12T14:15:22.000Z,27.4
2018-09-12T14:17:22.000Z,27.3
2018-09-12T14:18:22.000Z,27.2
2018-09-12T14:20:22.000Z,27.1
2018-09-12T14:22:22.000Z,26.9
2018-09-12T14:23:22.000Z,26.8
2018-09-12T14:24:22.000Z,26.8
2018-09-12T14:26:22.000Z,26.7
2018-09-12T14:28:22.000Z,26.5
2018-09-12T14:30:07.000Z,26.4
2018-09-12T14:31:22.000Z,26.2
2018-09-12T14:32:22.000Z,26.2
2018-09-12T14:33:22.000Z,26.1
2018-09-12T14:35:22.000Z,26
2018-09-12T14:36:22.000Z,26.1
2018-09-12T14:37:22.000Z,26.2
2018-09-12T14:38:22.000Z,26.2
2018-09-12T14:39:22.000Z,26.4
2018-09-12T14:40:22.000Z,26.4
2018-09-12T14:41:22.000Z,26.5
2018-09-12T14:43:22.000Z,26.4
2018-09-12T14:44:22.000Z,26.5
2018-09-12T14:45:22.000Z,26.4
2018-09-12T14:47:22.000Z,26.4
2018-09-12T14:49:22.000Z,26.5
2018-09-12T14:50:22.000Z,26.6
2018-09-12T14:52:22.000Z,27
2018-09-12T14:53:22.000Z,27.2
2018-09-12T14:54:22.000Z,27.4
2018-09-12T14:55:22.000Z,27.6
2018-09-12T14:57:22.000Z,27.8
2018-09-12T14:58:22.000Z,28
2018-09-12T15:00:22.000Z,28.2
2018-09-12T15:01:22.000Z,28.3
2018-09-12T15:02:22.000Z,28.4
2018-09-12T15:04:22.000Z,28.5
2018-09-12T15:06:22.000Z,28.6
2018-09-12T15:07:22.000Z,28.7
2018-09-12T15:09:22.000Z,28.8
2018-09-12T15:10:22.000Z,28.8
2018-09-12T15:12:22.000Z,28.9
2018-09-12T15:14:22.000Z,28.9
2018-09-12T15:15:22.000Z,28.9
2018-09-12T15:16:22.000Z,28.9
2018-09-12T15:18:07.000Z,29
2018-09-12T15:19:22.000Z,29
2018-09-12T15:21:22.000Z,29
2018-09-12T15:22:22.000Z,29
2018-09-12T15:24:07.000Z,29.1
2018-09-12T15:25:22.000Z,29.1
2018-09-12T15:26:22.000Z,29.1
2018-09-12T15:28:22.000Z,29.2
2018-09-12T15:30:22.000Z,29.2
2018-09-12T15:32:22.000Z,29.2
2018-09-12T15:34:22.000Z,29.2
2018-09-12T15:36:22.000Z,29.1
2018-09-12T15:38:22.000Z,29.1
2018-09-12T15:39:22.000Z,29.1
2018-09-12T15:40:22.000Z,29.2
2018-09-12T15:41:22.000Z,29.3
2018-09-12T15:43:22.000Z,29.4
2018-09-12T15:45:22.000Z,29.4
2018-09-12T15:46:22.000Z,29.4
2018-09-12T15:48:07.000Z,29.5
2018-09-12T15:49:22.000Z,29.4
2018-09-12T15:50:22.000Z,29.4
2018-09-12T15:52:22.000Z,29.5
2018-09-12T15:54:22.000Z,29.5
2018-09-12T15:55:22.000Z,29.5
2018-09-12T15:57:22.000Z,29.4
2018-09-12T15:58:22.000Z,29.4
2018-09-12T16:00:22.000Z,29.5
2018-09-12T16:01:22.000Z,29.5
2018-09-12T16:03:22.000Z,29.5
2018-09-12T16:05:22.000Z,29.4
2018-09-12T16:06:22.000Z,29.4
2018-09-12T16:08:22.000Z,29.4
2018-09-12T16:10:22.000Z,29.3
2018-09-12T16:12:22.000Z,29.3
2018-09-12T16:13:22.000Z,29.3
2018-09-12T16:15:07.000Z,29.3
2018-09-12T16:16:22.000Z,29.3
2018-09-12T16:17:22.000Z,29.4
2018-09-12T16:19:22.000Z,29.5
2018-09-12T16:20:22.000Z,29.5
2018-09-12T16:21:22.000Z,29.5
2018-09-12T16:23:22.000Z,29.6
2018-09-12T16:25:22.000Z,29.6
2018-09-12T16:26:22.000Z,29.6
2018-09-12T16:28:22.000Z,29.6
2018-09-12T16:29:22.000Z,29.7
2018-09-12T16:31:22.000Z,29.7
2018-09-12T16:32:22.000Z,29.7
2018-09-12T16:33:22.000Z,29.7
2018-09-12T16:35:22.000Z,29.7
2018-09-12T16:37:22.000Z,29.6
2018-09-12T16:38:22.000Z,29.6
2018-09-12T16:39:22.000Z,29.6
2018-09-12T16:41:22.000Z,29.7
2018-09-12T16:42:22.000Z,29.7
2018-09-12T16:43:22.000Z,29.8
2018-09-12T16:44:22.000Z,29.8
2018-09-12T16:46:22.000Z,29.8
2018-09-12T16:48:22.000Z,29.7
2018-09-12T16:50:22.000Z,29.6
2018-09-12T16:52:22.000Z,29.6
2018-09-12T16:54:22.000Z,29.6
2018-09-12T16:55:22.000Z,29.6
2018-09-12T16:57:06.000Z,29.6
2018-09-12T16:58:22.000Z,29.6
2018-09-12T17:00:22.000Z,29.6
2018-09-12T17:02:22.000Z,29.6
2018-09-12T17:04:22.000Z,29.6
2018-09-12T17:06:06.000Z,29.6
2018-09-12T17:07:22.000Z,29.6
2018-09-12T17:08:22.000Z,29.6
2018-09-12T17:10:06.000Z,29.7
2018-09-12T17:11:22.000Z,29.6
2018-09-12T17:12:22.000Z,29.6
2018-09-12T17:14:22.000Z,29.7
2018-09-12T17:16:22.000Z,29.7
2018-09-12T17:17:22.000Z,29.7
2018-09-12T17:18:22.000Z,29.8
2018-09-12T17:20:22.000Z,29.8
2018-09-12T17:21:22.000Z,29.8
2018-09-12T17:23:22.000Z,29.8
2018-09-12T17:24:22.000Z,29.8
2018-09-12T17:26:22.000Z,29.8
2018-09-12T17:27:22.000Z,29.8
2018-09-12T17:29:22.000Z,29.7
2018-09-12T17:31:22.000Z,29.6
2018-09-12T17:33:22.000Z,29.6
2018-09-12T17:35:22.000Z,29.6
2018-09-12T17:36:22.000Z,29.6
2018-09-12T17:38:22.000Z,29.6
2018-09-12T17:40:22.000Z,29.6
2018-09-12T17:42:22.000Z,29.5
2018-09-12T17:44:22.000Z,29.5
2018-09-12T17:46:22.000Z,29.5
2018-09-12T17:47:22.000Z,29.5
2018-09-12T17:49:22.000Z,29.5
2018-09-12T17:50:22.000Z,29.5
2018-09-12T17:51:22.000Z,29.5
2018-09-12T17:53:22.000Z,29.6
2018-09-12T17:55:22.000Z,29.6
2018-09-12T17:56:22.000Z,29.6
2018-09-12T17:57:22.000Z,29.6
2018-09-12T17:59:22.000Z,29.6
2018-09-12T18:00:22.000Z,29.6
2018-09-12T18:01:22.000Z,29.6
2018-09-12T18:02:22.000Z,29.6
2018-09-12T18:04:22.000Z,29.7
2018-09-12T18:05:22.000Z,29.7
2018-09-12T18:07:22.000Z,29.7
2018-09-12T18:09:22.000Z,29.7
2018-09-12T18:11:22.000Z,29.6
2018-09-12T18:13:07.000Z,29.6
2018-09-12T18:14:22.000Z,29.5
2018-09-12T18:15:22.000Z,29.6
2018-09-12T18:17:22.000Z,29.6
2018-09-12T18:18:22.000Z,29.6
2018-09-12T18:20:22.000Z,29.7
2018-09-12T18:22:22.000Z,29.7
2018-09-12T18:24:22.000Z,29.6
2018-09-12T18:26:22.000Z,29.5
2018-09-12T18:28:22.000Z,29.5
2018-09-12T18:29:22.000Z,29.5
2018-09-12T18:31:22.000Z,29.6
2018-09-12T18:32:22.000Z,29.6
2018-09-12T18:33:22.000Z,29.6
2018-09-12T18:35:06.000Z,29.7
2018-09-12T18:36:22.000Z,29.7
2018-09-12T18:37:22.000Z,29.7
2018-09-12T18:38:22.000Z,29.7
2018-09-12T18:40:22.000Z,29.8
2018-09-12T18:42:22.000Z,29.7
2018-09-12T18:44:22.000Z,29.6
2018-09-12T18:45:22.000Z,29.6
2018-09-12T18:47:22.000Z,29.6
2018-09-12T18:49:22.000Z,29.6
2018-09-12T18:51:22.000Z,29.6
2018-09-12T18:53:22.000Z,29.5
2018-09-12T18:55:06.000Z,29.5
2018-09-12T18:56:22.000Z,29.5
2018-09-12T18:58:22.000Z,29.5
2018-09-12T18:59:22.000Z,29.5
2018-09-12T19:01:06.000Z,29.6
2018-09-12T19:02:22.000Z,29.6
2018-09-12T19:04:22.000Z,29.6
2018-09-12T19:06:22.000Z,29.6
2018-09-12T19:07:22.000Z,29.6
2018-09-12T19:09:22.000Z,29.7
2018-09-12T19:11:22.000Z,29.7
2018-09-12T19:12:22.000Z,29.7
2018-09-12T19:14:22.000Z,29.7
2018-09-12T19:16:22.000Z,29.6
2018-09-12T19:17:22.000Z,29.6
2018-09-12T19:18:22.000Z,29.6
2018-09-12T19:20:22.000Z,29.7
2018-09-12T19:22:22.000Z,29.6
2018-09-12T19:24:22.000Z,29.6
2018-09-12T19:26:22.000Z,29.6
2018-09-12T19:28:22.000Z,29.5
2018-09-12T19:29:22.000Z,29.5
2018-09-12T19:31:07.000Z,29.6
2018-09-12T19:32:22.000Z,29.5
2018-09-12T19:33:22.000Z,29.6
2018-09-12T19:35:22.000Z,29.6
2018-09-12T19:36:22.000Z,29.6
2018-09-12T19:38:22.000Z,29.6
2018-09-12T19:40:07.000Z,29.7
2018-09-12T19:41:22.000Z,29.6
2018-09-12T19:43:22.000Z,29.6
2018-09-12T19:44:22.000Z,29.6
2018-09-12T19:46:22.000Z,29.6
2018-09-12T19:48:22.000Z,29.6
2018-09-12T19:49:22.000Z,29.6
2018-09-12T19:51:22.000Z,29.7
2018-09-12T19:52:22.000Z,29.7
2018-09-12T19:54:22.000Z,29.8
2018-09-12T19:55:22.000Z,29.8
2018-09-12T19:56:22.000Z,29.8
2018-09-12T19:58:22.000Z,29.9
2018-09-12T19:59:22.000Z,29.9
2018-09-12T20:00:22.000Z,29.9
2018-09-12T20:02:07.000Z,29.9
2018-09-12T20:03:22.000Z,29.9
2018-09-12T20:04:22.000Z,29.9
2018-09-12T20:06:22.000Z,29.8
2018-09-12T20:07:22.000Z,29.8
2018-09-12T20:09:22.000Z,29.8
2018-09-12T20:10:22.000Z,29.8
2018-09-12T20:12:22.000Z,29.8
2018-09-12T20:13:22.000Z,29.8
2018-09-12T20:15:07.000Z,29.8
2018-09-12T20:16:22.000Z,29.8
2018-09-12T20:18:22.000Z,29.8
2018-09-12T20:20:22.000Z,29.7
2018-09-12T20:21:22.000Z,29.6
2018-09-12T20:23:22.000Z,29.7
2018-09-12T20:25:07.000Z,29.7
2018-09-12T20:26:22.000Z,29.7
2018-09-12T20:28:22.000Z,29.7
2018-09-12T20:29:22.000Z,29.7
2018-09-12T20:30:22.000Z,29.7
2018-09-12T20:31:22.000Z,29.8
2018-09-12T20:33:07.000Z,29.9
2018-09-12T20:34:22.000Z,29.8
2018-09-12T20:35:22.000Z,29.8
2018-09-12T20:37:22.000Z,29.8
2018-09-12T20:39:22.000Z,29.7
2018-09-12T20:40:22.000Z,29.7
2018-09-12T20:41:22.000Z,29.8
2018-09-12T20:42:22.000Z,29.8
2018-09-12T20:44:07.000Z,29.9
2018-09-12T20:45:22.000Z,29.9
2018-09-12T20:46:22.000Z,29.9
2018-09-12T20:48:22.000Z,29.9
2018-09-12T20:49:22.000Z,29.9
2018-09-12T20:51:22.000Z,29.9
2018-09-12T20:53:22.000Z,29.8
2018-09-12T20:55:22.000Z,29.7
2018-09-12T20:56:22.000Z,29.7
2018-09-12T20:58:22.000Z,29.7
2018-09-12T20:59:22.000Z,29.7
2018-09-12T21:01:22.000Z,29.8
2018-09-12T21:03:22.000Z,29.7
2018-09-12T21:04:22.000Z,29.7
2018-09-12T21:05:22.000Z,29.7
2018-09-12T21:06:22.000Z,29.8
2018-09-12T21:07:22.000Z,29.8
2018-09-12T21:09:22.000Z,29.9
2018-09-12T21:10:22.000Z,29.9
2018-09-12T21:12:22.000Z,29.9
2018-09-12T21:13:22.000Z,29.9
2018-09-12T21:15:22.000Z,29.9
2018-09-12T21:16:22.000Z,29.9
2018-09-12T21:18:22.000Z,29.9
2018-09-12T21:20:22.000Z,29.8
2018-09-12T21:22:22.000Z,29.8
2018-09-12T21:23:22.000Z,29.8